Mashhad International Airport
OIMM : now visible

Airfield :











YOU CAN JOIN US ON...

 
LOGIN :

Register | Disclaimer

   EN    FR    IT 

 









Legend :    VFR   Marginal VFR   IFR   Intensive IFR   Very Intensive IFR
Visi :
Ceiling :
>= 8 km
>= 3000ft
5 to 8 km
1000 to 3000 ft
1500m to 5 km
500 to 1000 ft
800 to 1500m
200 to 500 ft
< 800m
< 200 ft
Symbols :   Thunderstorms  Fog  Heavy snow  Heavy precipitations  Wind > 20 kt







- Airport Elevation : 3263 ft
- IATA code : MHD


OIMM - Mashhad International

CURRENT METAR :
  • 271200Z 06010KT 9999 FEW040 36/M01 Q1010 A2985

EXPIRED METARs :
  • 271130Z 04010KT 9999 FEW040 37/M03 Q1011 A2986
  • 271100Z 06008KT 9999 FEW040 36/M02 Q1011 A2986
  • 271030Z 35008KT 9999 FEW040 37/M03 Q1011 A2987
  • 271000Z 06010KT 9999 FEW040 36/M01 Q1011 A2987

TAF TAF OIMM
Valid from the 27 at 12:00 until the 28 at 18:00 UTC


271100Z 2712/2818 35006KT CAVOK
TEMPO 2712/2718 36020KT 6000 NSC
TEMPO 2809/2815 08018KT 6000 FEW030CB SCT035 BKN100
PROB40 5000 TSRA SCT030CB SCT035 BKN090
OIIX FIR / Asia



MET'MAP, your aeronautical weather chart ! - Copyright ORBIFLY December 2007 - Disclaimer

ORBIFLY MET'MAP TEAM :

Programming & Development : Alexandra Zaïnal
Concept & Development : Baudouin d'Aumeries
Co-Development & Prog : Marc-Olivier Méhu
Technical & hardware support : Manuel Goepfert

Contact : metmap@orbifly.com




SOURCES & CREDITS :

   NOAA       Earth
Advisory